Terminal Aerodrome Forecast
Issued by NWS

Home | Current Version | Previous Version | Text Only | Print | Product List | Glossary On
Versions: 1 2 3 4 5 6 7 8 9 10 11 12 13 14 15 16 17 18 19 20 21 22 23 24 25 26
000
FTUS45 KSLC 272324
TAF36U
TAF
K36U 272324Z 2800/2824 VRB05KT P6SM VCTS SCT040CB BKN060
     FM280130 24010KT P6SM VCSH SCT070 BKN090
     FM280300 VRB04KT P6SM SCT090 SCT120
     FM280600 VRB05KT P6SM SKC
     FM281900 30006KT P6SM SKC=

USA.gov is the U.S. government's official web portal to all federal, state and local government web resources and services.